Grassy Key, Florida
Current Conditions -  °F | °C
As of 9:53 PM on Tuesday 21 Oct 2014 (Local Time) from KMTH Reporting Station
Broken Clouds Broken Clouds  
Wind Chill: 76°   Ceiling: 12000
Heat Index: 76°   Visibility: 10mi
Dew Point: 75°   Wind: 5mph
Humidity: 97%   Direction: 30°NNE
Pressure: 29.98"   Gusts: NA
Location:  24.7161°N, 81.0717°W
Report Text: KMTH 220153Z AUTO 03004KT 10SM BKN120 24/24 A2998 RMK AO2 SLP150 T02440239
Loading
Personal Weather Stations






























Interactive Weather Map
Tropical Storm Tracking
New forecast layout! Learn more

10-Day Weather Forecast

Advertisements
Track Severe Weather on mobile